createdAt,value
2019-05-01T00:02:29.108Z,32.10
2019-05-01T00:05:02.960Z,33.95
2019-05-01T00:07:36.596Z,32.63
2019-05-01T00:10:07.616Z,29.92
2019-05-01T00:12:37.013Z,32.35
2019-05-01T00:15:09.490Z,29.72
2019-05-01T00:20:07.729Z,32.15
2019-05-01T00:22:37.099Z,29.40
2019-05-01T00:25:06.794Z,28.65
2019-05-01T00:27:57.131Z,28.20
2019-05-01T00:30:30.193Z,28.62
2019-05-01T00:32:59.272Z,28.67
2019-05-01T00:35:28.774Z,27.77
2019-05-01T00:37:58.158Z,30.27
2019-05-01T00:40:27.495Z,31.23
2019-05-01T00:42:56.799Z,26.33
2019-05-01T00:45:26.137Z,28.57
2019-05-01T00:47:55.499Z,28.12
2019-05-01T00:50:24.835Z,27.87
2019-05-01T00:52:54.230Z,27.90
2019-05-01T00:55:41.597Z,28.92
2019-05-01T00:58:28.694Z,32.15
2019-05-01T01:01:14.724Z,27.20
2019-05-01T01:03:44.116Z,28.40
2019-05-01T01:06:13.583Z,27.87
2019-05-01T01:08:42.882Z,28.32
2019-05-01T01:11:12.284Z,27.13
2019-05-01T01:13:41.604Z,27.93
2019-05-01T01:16:10.936Z,27.58
2019-05-01T01:18:40.260Z,29.12
2019-05-01T01:21:09.584Z,40.20
2019-05-01T01:23:39.344Z,35.28
2019-05-01T01:26:09.089Z,38.38
2019-05-01T01:28:38.468Z,47.53
2019-05-01T01:31:08.042Z,33.63
2019-05-01T01:33:38.388Z,34.95
2019-05-01T01:36:07.720Z,29.10
2019-05-01T01:38:37.025Z,28.20
2019-05-01T01:41:06.599Z,31.95
2019-05-01T01:43:40.953Z,28.15
2019-05-01T01:46:11.997Z,34.58
2019-05-01T01:48:41.428Z,32.38
2019-05-01T01:51:10.895Z,31.30
2019-05-01T01:53:40.462Z,30.12
2019-05-01T01:56:09.869Z,31.87
2019-05-01T01:58:39.236Z,28.77
2019-05-01T02:01:16.255Z,28.87
2019-05-01T02:03:47.402Z,28.27
2019-05-01T02:06:16.847Z,31.75
2019-05-01T02:08:56.004Z,28.50
2019-05-01T02:11:17.385Z,27.90
2019-05-01T02:13:46.960Z,31.73
2019-05-01T02:16:16.340Z,28.87
2019-05-01T02:18:45.743Z,26.37
2019-05-01T02:21:15.045Z,27.00
2019-05-01T02:23:44.368Z,31.90
2019-05-01T02:26:15.658Z,27.87
2019-05-01T02:28:49.934Z,35.52
2019-05-01T02:31:27.901Z,30.30
2019-05-01T02:33:57.503Z,25.68
2019-05-01T02:38:57.731Z,26.73
2019-05-01T02:41:30.116Z,28.10
2019-05-01T02:44:02.267Z,33.35
2019-05-01T02:46:35.959Z,25.20
2019-05-01T02:49:27.672Z,26.48
2019-05-01T02:51:57.500Z,28.75
2019-05-01T02:57:06.082Z,28.57
2019-05-01T02:59:38.163Z,27.15
2019-05-01T03:02:08.930Z,26.65
2019-05-01T03:07:08.501Z,25.15
2019-05-01T03:09:38.746Z,26.52
2019-05-01T03:12:08.828Z,26.97
2019-05-01T03:14:41.215Z,27.17
2019-05-01T03:17:30.493Z,26.57
2019-05-01T03:20:02.015Z,25.60
2019-05-01T03:22:49.702Z,24.15
2019-05-01T03:25:19.588Z,25.27
2019-05-01T03:27:48.990Z,25.17
2019-05-01T03:30:18.493Z,27.40
2019-05-01T03:32:47.958Z,28.55
2019-05-01T03:35:17.525Z,31.48
2019-05-01T03:37:46.827Z,33.63
2019-05-01T03:40:16.509Z,35.00
2019-05-01T03:42:46.140Z,29.15
2019-05-01T03:45:15.740Z,29.90
2019-05-01T03:47:45.377Z,32.25
2019-05-01T03:50:14.959Z,35.50
2019-05-01T03:52:45.474Z,38.75
2019-05-01T03:55:15.370Z,28.90
2019-05-01T03:57:45.171Z,36.93
2019-05-01T04:00:16.708Z,37.63
2019-05-01T04:02:47.980Z,29.02
2019-05-01T04:05:17.427Z,27.60
2019-05-01T04:07:47.798Z,30.62
2019-05-01T04:10:17.551Z,27.58
2019-05-01T04:12:47.041Z,27.27
2019-05-01T04:15:16.509Z,26.42
2019-05-01T04:17:47.721Z,25.10
2019-05-01T04:20:17.265Z,24.47
2019-05-01T04:22:47.042Z,27.17
2019-05-01T04:25:16.480Z,26.35
2019-05-01T04:27:47.620Z,24.95
2019-05-01T04:30:19.908Z,24.67
2019-05-01T04:32:53.240Z,24.72
2019-05-01T04:35:40.146Z,24.87
2019-05-01T04:38:09.531Z,26.35
2019-05-01T04:40:39.008Z,26.65
2019-05-01T04:43:08.390Z,27.95
2019-05-01T04:45:37.714Z,27.07
2019-05-01T04:48:07.095Z,26.48
2019-05-01T04:50:36.672Z,24.65
2019-05-01T04:53:06.636Z,24.57
2019-05-01T04:55:36.212Z,27.47
2019-05-01T04:58:05.657Z,26.97
2019-05-01T05:00:35.824Z,24.67
2019-05-01T05:03:08.089Z,26.82
2019-05-01T05:05:38.168Z,27.37
2019-05-01T05:08:07.561Z,25.02
2019-05-01T05:10:37.444Z,26.70
2019-05-01T05:13:08.790Z,29.23
2019-05-01T05:15:52.372Z,25.77
2019-05-01T05:18:22.054Z,32.75
2019-05-01T05:20:52.098Z,26.57
2019-05-01T05:23:23.600Z,28.57
2019-05-01T05:25:53.050Z,33.38
2019-05-01T05:28:24.013Z,29.12
2019-05-01T05:30:56.753Z,31.93
2019-05-01T05:33:28.187Z,26.62
2019-05-01T05:35:58.518Z,27.87
2019-05-01T05:38:30.810Z,30.57
2019-05-01T05:41:01.139Z,27.42
2019-05-01T05:43:30.785Z,28.15
2019-05-01T05:46:00.456Z,26.65
2019-05-01T05:48:29.905Z,26.77
2019-05-01T05:51:08.427Z,26.85
2019-05-01T05:53:41.828Z,26.42
2019-05-01T05:56:18.535Z,26.23
2019-05-01T05:58:55.300Z,25.70
2019-05-01T06:01:28.693Z,27.15
2019-05-01T06:04:19.615Z,25.85
2019-05-01T06:09:36.910Z,24.95
2019-05-01T06:12:14.194Z,25.72
2019-05-01T06:14:50.411Z,25.77
2019-05-01T06:17:33.815Z,25.02
2019-05-01T06:20:25.303Z,23.35
2019-05-01T06:23:10.340Z,23.25
2019-05-01T06:25:43.595Z,24.20
2019-05-01T06:28:13.838Z,23.30
2019-05-01T06:30:47.090Z,25.12
2019-05-01T06:33:14.300Z,23.62
2019-05-01T06:35:43.941Z,24.47
2019-05-01T06:38:17.967Z,21.90
2019-05-01T06:40:53.227Z,23.67
2019-05-01T06:43:37.061Z,24.00
2019-05-01T06:46:11.198Z,21.60
2019-05-01T06:49:00.227Z,20.70
2019-05-01T06:51:35.053Z,22.50
2019-05-01T06:54:11.498Z,21.15
2019-05-01T06:56:40.492Z,22.52
2019-05-01T06:59:10.153Z,22.67
2019-05-01T07:01:40.091Z,24.52
2019-05-01T07:04:09.564Z,23.17
2019-05-01T07:06:39.039Z,22.15
2019-05-01T07:09:11.910Z,22.02
2019-05-01T07:11:42.563Z,24.25
2019-05-01T07:14:16.216Z,21.75
2019-05-01T07:16:43.312Z,21.68
2019-05-01T07:19:13.694Z,23.18
2019-05-01T07:21:43.258Z,23.38
2019-05-01T07:24:12.585Z,22.17
2019-05-01T07:26:43.946Z,22.55
2019-05-01T07:29:14.711Z,22.75
2019-05-01T07:31:44.562Z,21.50
2019-05-01T07:34:16.723Z,22.10
2019-05-01T07:36:45.682Z,22.85
2019-05-01T07:39:16.473Z,22.35
2019-05-01T07:41:46.246Z,23.07
2019-05-01T07:44:34.926Z,24.23
2019-05-01T07:47:06.046Z,22.65
2019-05-01T07:49:52.710Z,22.42
2019-05-01T07:52:23.645Z,20.85
2019-05-01T07:54:54.198Z,23.00
2019-05-01T07:57:23.870Z,21.50
2019-05-01T07:59:53.363Z,22.05
2019-05-01T08:02:25.961Z,22.17
2019-05-01T08:04:53.714Z,20.60
2019-05-01T08:07:23.084Z,22.05
2019-05-01T08:09:52.447Z,20.68
2019-05-01T08:12:23.987Z,21.30
2019-05-01T08:14:53.665Z,19.77
2019-05-01T08:17:24.762Z,20.77
2019-05-01T08:19:58.666Z,20.60
2019-05-01T08:22:32.126Z,20.62
2019-05-01T08:25:00.647Z,20.00
2019-05-01T08:27:31.643Z,20.27
2019-05-01T08:30:02.674Z,18.80
2019-05-01T08:32:39.005Z,20.80
2019-05-01T08:35:09.215Z,19.15
2019-05-01T08:37:38.623Z,18.57
2019-05-01T08:40:08.364Z,19.40
2019-05-01T08:42:42.359Z,19.87
2019-05-01T08:45:22.959Z,17.98
2019-05-01T08:47:56.748Z,17.35
2019-05-01T08:50:26.034Z,18.42
2019-05-01T08:52:55.443Z,17.67
2019-05-01T08:55:24.852Z,17.00
2019-05-01T08:57:55.469Z,68.17
2019-05-01T09:00:24.789Z,60.63
2019-05-01T09:02:54.093Z,20.08
2019-05-01T09:05:28.795Z,17.87
2019-05-01T09:07:55.840Z,17.50
2019-05-01T09:10:25.489Z,15.10
2019-05-01T09:12:55.673Z,16.05
2019-05-01T09:15:25.112Z,14.93
2019-05-01T09:17:54.452Z,14.00
2019-05-01T09:20:55.797Z,11.57
2019-05-01T09:23:26.863Z,13.30
2019-05-01T09:26:01.428Z,14.05
2019-05-01T09:28:35.919Z,13.20
2019-05-01T09:31:05.409Z,12.43
2019-05-01T09:33:34.883Z,12.88
2019-05-01T09:36:04.365Z,12.00
2019-05-01T09:38:33.693Z,14.75
2019-05-01T09:41:03.103Z,10.55
2019-05-01T09:43:35.515Z,11.35
2019-05-01T09:46:04.235Z,9.65
2019-05-01T09:48:33.622Z,12.58
2019-05-01T09:51:19.709Z,11.35
2019-05-01T09:53:50.731Z,8.98
2019-05-01T09:56:21.722Z,8.38
2019-05-01T09:58:51.091Z,8.30
2019-05-01T10:01:24.524Z,9.77
2019-05-01T10:03:54.467Z,8.35
2019-05-01T10:06:22.700Z,8.23
2019-05-01T10:08:52.000Z,9.47
2019-05-01T10:11:21.332Z,11.53
2019-05-01T10:13:53.748Z,8.85
2019-05-01T10:16:21.731Z,8.60
2019-05-01T10:18:51.043Z,9.15
2019-05-01T10:21:22.373Z,9.28
2019-05-01T10:23:51.739Z,9.38
2019-05-01T10:26:25.312Z,9.90
2019-05-01T10:29:12.857Z,9.73
2019-05-01T10:32:00.248Z,8.78
2019-05-01T10:34:31.277Z,8.63
2019-05-01T10:37:00.676Z,8.10
2019-05-01T10:39:31.144Z,9.73
2019-05-01T10:42:00.469Z,8.83
2019-05-01T10:44:29.776Z,9.95
2019-05-01T10:47:01.820Z,7.75
2019-05-01T10:49:30.140Z,7.83
2019-05-01T10:51:59.440Z,7.55
2019-05-01T10:54:28.840Z,6.95
